sensor_id;sensor_type;location;lat;lon;timestamp;pressure;altitude;pressure_sealevel;temperature;humidity
77153;BME280;66124;51.146;17.072;2023-04-07T00:02:08;100400.92;;;4.77;61.79
77153;BME280;66124;51.146;17.072;2023-04-07T00:04:37;100401.54;;;4.72;61.68
77153;BME280;66124;51.146;17.072;2023-04-07T00:07:07;100395.33;;;4.70;62.13
77153;BME280;66124;51.146;17.072;2023-04-07T00:09:36;100396.17;;;4.66;62.25
77153;BME280;66124;51.146;17.072;2023-04-07T00:12:06;100393.81;;;4.63;62.47
77153;BME280;66124;51.146;17.072;2023-04-07T00:14:36;100390.92;;;4.61;62.86
77153;BME280;66124;51.146;17.072;2023-04-07T00:17:05;100390.56;;;4.59;63.16
77153;BME280;66124;51.146;17.072;2023-04-07T00:19:35;100396.06;;;4.58;63.29
77153;BME280;66124;51.146;17.072;2023-04-07T00:22:04;100390.77;;;4.58;63.53
77153;BME280;66124;51.146;17.072;2023-04-07T00:24:33;100390.52;;;4.60;63.80
77153;BME280;66124;51.146;17.072;2023-04-07T00:27:03;100386.41;;;4.58;63.85
77153;BME280;66124;51.146;17.072;2023-04-07T00:29:33;100382.48;;;4.58;63.98
77153;BME280;66124;51.146;17.072;2023-04-07T00:32:02;100381.15;;;4.55;64.50
77153;BME280;66124;51.146;17.072;2023-04-07T00:34:31;100385.20;;;4.53;64.48
77153;BME280;66124;51.146;17.072;2023-04-07T00:37:01;100378.36;;;4.50;65.05
77153;BME280;66124;51.146;17.072;2023-04-07T00:39:31;100373.38;;;4.47;65.41
77153;BME280;66124;51.146;17.072;2023-04-07T00:42:00;100374.48;;;4.44;65.36
77153;BME280;66124;51.146;17.072;2023-04-07T00:44:31;100371.21;;;4.42;65.54
77153;BME280;66124;51.146;17.072;2023-04-07T00:47:00;100362.73;;;4.39;65.75
77153;BME280;66124;51.146;17.072;2023-04-07T00:49:30;100358.81;;;4.33;66.29
77153;BME280;66124;51.146;17.072;2023-04-07T00:52:00;100357.17;;;4.26;66.48
77153;BME280;66124;51.146;17.072;2023-04-07T00:54:30;100359.16;;;4.19;66.75
77153;BME280;66124;51.146;17.072;2023-04-07T00:56:59;100352.33;;;4.14;67.14
77153;BME280;66124;51.146;17.072;2023-04-07T00:59:29;100353.08;;;4.07;67.55
77153;BME280;66124;51.146;17.072;2023-04-07T01:02:04;100347.81;;;4.02;67.61
77153;BME280;66124;51.146;17.072;2023-04-07T01:04:45;100345.79;;;3.97;67.79
77153;BME280;66124;51.146;17.072;2023-04-07T01:07:21;100344.48;;;3.94;68.05
77153;BME280;66124;51.146;17.072;2023-04-07T01:09:56;100339.67;;;3.90;68.41
77153;BME280;66124;51.146;17.072;2023-04-07T01:17:57;100343.33;;;3.78;69.11
77153;BME280;66124;51.146;17.072;2023-04-07T01:20:31;100341.15;;;3.71;69.08
77153;BME280;66124;51.146;17.072;2023-04-07T01:23:05;100339.27;;;3.69;69.55
77153;BME280;66124;51.146;17.072;2023-04-07T01:25:58;100333.70;;;3.67;69.45
77153;BME280;66124;51.146;17.072;2023-04-07T01:31:46;100329.70;;;3.59;70.26
77153;BME280;66124;51.146;17.072;2023-04-07T01:34:17;100336.50;;;3.57;70.49
77153;BME280;66124;51.146;17.072;2023-04-07T01:36:48;100338.48;;;3.56;70.54
77153;BME280;66124;51.146;17.072;2023-04-07T01:39:19;100340.92;;;3.54;70.74
77153;BME280;66124;51.146;17.072;2023-04-07T01:41:49;100336.81;;;3.51;71.06
77153;BME280;66124;51.146;17.072;2023-04-07T01:44:20;100332.77;;;3.49;71.29
77153;BME280;66124;51.146;17.072;2023-04-07T01:46:50;100334.90;;;3.47;71.14
77153;BME280;66124;51.146;17.072;2023-04-07T01:49:20;100334.61;;;3.44;71.66
77153;BME280;66124;51.146;17.072;2023-04-07T01:51:51;100333.67;;;3.41;71.74
77153;BME280;66124;51.146;17.072;2023-04-07T01:54:22;100330.88;;;3.39;71.87
77153;BME280;66124;51.146;17.072;2023-04-07T01:56:51;100330.02;;;3.39;71.73
77153;BME280;66124;51.146;17.072;2023-04-07T01:59:20;100328.73;;;3.40;72.21
77153;BME280;66124;51.146;17.072;2023-04-07T02:01:50;100325.48;;;3.39;72.50
77153;BME280;66124;51.146;17.072;2023-04-07T02:04:27;100324.29;;;3.39;72.51
77153;BME280;66124;51.146;17.072;2023-04-07T02:07:00;100321.68;;;3.37;72.43
77153;BME280;66124;51.146;17.072;2023-04-07T02:09:32;100318.75;;;3.35;72.73
77153;BME280;66124;51.146;17.072;2023-04-07T02:12:04;100320.27;;;3.33;72.73
77153;BME280;66124;51.146;17.072;2023-04-07T02:14:36;100317.25;;;3.32;72.91
77153;BME280;66124;51.146;17.072;2023-04-07T02:17:07;100317.94;;;3.30;73.19
77153;BME280;66124;51.146;17.072;2023-04-07T02:19:37;100315.21;;;3.28;73.50
77153;BME280;66124;51.146;17.072;2023-04-07T02:22:07;100313.14;;;3.25;73.57
77153;BME280;66124;51.146;17.072;2023-04-07T02:24:37;100308.46;;;3.22;73.63
77153;BME280;66124;51.146;17.072;2023-04-07T02:27:10;100303.24;;;3.20;73.90
77153;BME280;66124;51.146;17.072;2023-04-07T02:29:37;100302.43;;;3.17;73.97
77153;BME280;66124;51.146;17.072;2023-04-07T02:34:50;100299.67;;;3.19;74.18
77153;BME280;66124;51.146;17.072;2023-04-07T02:37:19;100299.92;;;3.20;74.28
77153;BME280;66124;51.146;17.072;2023-04-07T02:39:48;100306.44;;;3.25;74.17
77153;BME280;66124;51.146;17.072;2023-04-07T02:42:18;100304.30;;;3.29;74.34
77153;BME280;66124;51.146;17.072;2023-04-07T02:44:47;100298.41;;;3.35;74.35
77153;BME280;66124;51.146;17.072;2023-04-07T02:47:18;100288.96;;;3.38;74.17
77153;BME280;66124;51.146;17.072;2023-04-07T02:49:47;100288.12;;;3.39;74.11
77153;BME280;66124;51.146;17.072;2023-04-07T02:52:17;100287.69;;;3.41;74.18
77153;BME280;66124;51.146;17.072;2023-04-07T02:54:46;100286.60;;;3.43;74.24
77153;BME280;66124;51.146;17.072;2023-04-07T02:57:15;100283.73;;;3.44;74.15
77153;BME280;66124;51.146;17.072;2023-04-07T02:59:45;100278.52;;;3.42;74.18
77153;BME280;66124;51.146;17.072;2023-04-07T03:02:14;100282.00;;;3.42;74.40
77153;BME280;66124;51.146;17.072;2023-04-07T03:04:44;100279.55;;;3.42;74.38
77153;BME280;66124;51.146;17.072;2023-04-07T03:07:13;100276.79;;;3.42;74.24
77153;BME280;66124;51.146;17.072;2023-04-07T03:09:43;100277.45;;;3.38;74.22
77153;BME280;66124;51.146;17.072;2023-04-07T03:12:12;100278.67;;;3.36;74.16
77153;BME280;66124;51.146;17.072;2023-04-07T03:14:41;100275.59;;;3.34;74.04
77153;BME280;66124;51.146;17.072;2023-04-07T03:17:11;100279.67;;;3.35;74.25
77153;BME280;66124;51.146;17.072;2023-04-07T03:19:40;100285.11;;;3.38;74.19
77153;BME280;66124;51.146;17.072;2023-04-07T03:22:10;100286.70;;;3.42;74.13
77153;BME280;66124;51.146;17.072;2023-04-07T03:24:39;100285.48;;;3.46;74.23
77153;BME280;66124;51.146;17.072;2023-04-07T03:27:08;100286.42;;;3.51;74.10
77153;BME280;66124;51.146;17.072;2023-04-07T03:29:38;100289.42;;;3.54;74.00
77153;BME280;66124;51.146;17.072;2023-04-07T03:32:07;100287.73;;;3.58;74.12
77153;BME280;66124;51.146;17.072;2023-04-07T03:34:37;100285.48;;;3.60;74.05
77153;BME280;66124;51.146;17.072;2023-04-07T03:37:06;100285.58;;;3.61;74.14
77153;BME280;66124;51.146;17.072;2023-04-07T03:39:36;100287.86;;;3.61;73.82
77153;BME280;66124;51.146;17.072;2023-04-07T03:42:05;100285.23;;;3.61;74.23
77153;BME280;66124;51.146;17.072;2023-04-07T03:44:33;100281.95;;;3.61;74.02
77153;BME280;66124;51.146;17.072;2023-04-07T03:55:16;100276.10;;;3.66;74.30
77153;BME280;66124;51.146;17.072;2023-04-07T03:57:46;100273.77;;;3.65;74.32
77153;BME280;66124;51.146;17.072;2023-04-07T04:00:16;100271.55;;;3.66;74.36
77153;BME280;66124;51.146;17.072;2023-04-07T04:02:45;100273.23;;;3.68;74.43
77153;BME280;66124;51.146;17.072;2023-04-07T04:05:15;100275.25;;;3.68;74.77
77153;BME280;66124;51.146;17.072;2023-04-07T04:07:44;100277.40;;;3.65;74.84
77153;BME280;66124;51.146;17.072;2023-04-07T04:10:14;100279.77;;;3.64;74.70
77153;BME280;66124;51.146;17.072;2023-04-07T04:12:43;100276.83;;;3.64;74.87
77153;BME280;66124;51.146;17.072;2023-04-07T04:15:12;100276.65;;;3.63;74.84
77153;BME280;66124;51.146;17.072;2023-04-07T04:17:42;100277.48;;;3.64;74.71
77153;BME280;66124;51.146;17.072;2023-04-07T04:20:12;100275.52;;;3.65;74.72
77153;BME280;66124;51.146;17.072;2023-04-07T04:22:42;100276.81;;;3.68;74.66
77153;BME280;66124;51.146;17.072;2023-04-07T04:25:11;100282.55;;;3.71;74.75
77153;BME280;66124;51.146;17.072;2023-04-07T04:27:40;100283.67;;;3.73;74.46
77153;BME280;66124;51.146;17.072;2023-04-07T04:30:11;100282.37;;;3.73;74.35
77153;BME280;66124;51.146;17.072;2023-04-07T04:32:40;100278.16;;;3.72;74.30
77153;BME280;66124;51.146;17.072;2023-04-07T04:35:10;100279.20;;;3.70;74.26
77153;BME280;66124;51.146;17.072;2023-04-07T04:37:40;100282.63;;;3.69;74.35
77153;BME280;66124;51.146;17.072;2023-04-07T04:40:11;100281.74;;;3.65;74.03
77153;BME280;66124;51.146;17.072;2023-04-07T04:42:41;100284.05;;;3.61;73.85
77153;BME280;66124;51.146;17.072;2023-04-07T04:45:11;100285.95;;;3.56;74.06
77153;BME280;66124;51.146;17.072;2023-04-07T04:47:40;100284.66;;;3.51;73.80
77153;BME280;66124;51.146;17.072;2023-04-07T04:50:10;100283.58;;;3.46;73.88
77153;BME280;66124;51.146;17.072;2023-04-07T04:52:40;100283.54;;;3.40;73.98
77153;BME280;66124;51.146;17.072;2023-04-07T04:55:11;100285.02;;;3.37;74.16
77153;BME280;66124;51.146;17.072;2023-04-07T04:57:40;100282.25;;;3.35;74.22
77153;BME280;66124;51.146;17.072;2023-04-07T05:00:11;100283.98;;;3.35;73.98
77153;BME280;66124;51.146;17.072;2023-04-07T05:02:41;100286.52;;;3.36;74.33
77153;BME280;66124;51.146;17.072;2023-04-07T05:05:11;100283.05;;;3.38;74.34
77153;BME280;66124;51.146;17.072;2023-04-07T05:07:39;100284.04;;;3.40;74.30
77153;BME280;66124;51.146;17.072;2023-04-07T05:15:16;100288.95;;;3.46;74.43
77153;BME280;66124;51.146;17.072;2023-04-07T05:17:46;100286.41;;;3.47;74.51
77153;BME280;66124;51.146;17.072;2023-04-07T05:20:15;100288.12;;;3.49;74.56
77153;BME280;66124;51.146;17.072;2023-04-07T05:22:44;100289.04;;;3.51;74.62
77153;BME280;66124;51.146;17.072;2023-04-07T05:25:14;100289.91;;;3.51;74.54
77153;BME280;66124;51.146;17.072;2023-04-07T05:27:44;100293.75;;;3.49;74.69
77153;BME280;66124;51.146;17.072;2023-04-07T05:30:15;100290.89;;;3.47;74.48
77153;BME280;66124;51.146;17.072;2023-04-07T05:32:44;100292.98;;;3.45;74.79
77153;BME280;66124;51.146;17.072;2023-04-07T05:35:14;100289.92;;;3.45;74.67
77153;BME280;66124;51.146;17.072;2023-04-07T05:37:44;100288.14;;;3.45;74.61
77153;BME280;66124;51.146;17.072;2023-04-07T05:40:14;100284.66;;;3.43;74.67
77153;BME280;66124;51.146;17.072;2023-04-07T05:42:43;100283.65;;;3.43;74.72
77153;BME280;66124;51.146;17.072;2023-04-07T05:45:13;100282.69;;;3.42;74.69
77153;BME280;66124;51.146;17.072;2023-04-07T05:47:43;100285.14;;;3.40;74.86
77153;BME280;66124;51.146;17.072;2023-04-07T05:50:12;100285.41;;;3.39;74.86
77153;BME280;66124;51.146;17.072;2023-04-07T05:52:41;100285.41;;;3.37;75.05
77153;BME280;66124;51.146;17.072;2023-04-07T05:55:11;100286.27;;;3.39;74.95
77153;BME280;66124;51.146;17.072;2023-04-07T05:57:40;100284.91;;;3.38;75.03
77153;BME280;66124;51.146;17.072;2023-04-07T06:00:12;100289.22;;;3.35;74.93
77153;BME280;66124;51.146;17.072;2023-04-07T06:02:42;100287.02;;;3.34;75.08
77153;BME280;66124;51.146;17.072;2023-04-07T06:05:11;100293.56;;;3.35;75.10
77153;BME280;66124;51.146;17.072;2023-04-07T06:07:41;100292.23;;;3.30;74.89
77153;BME280;66124;51.146;17.072;2023-04-07T06:10:10;100290.61;;;3.29;74.91
77153;BME280;66124;51.146;17.072;2023-04-07T06:12:40;100293.70;;;3.29;74.93
77153;BME280;66124;51.146;17.072;2023-04-07T06:15:10;100290.13;;;3.30;75.28
77153;BME280;66124;51.146;17.072;2023-04-07T06:17:39;100294.74;;;3.35;75.37
77153;BME280;66124;51.146;17.072;2023-04-07T06:20:10;100292.33;;;3.39;75.38
77153;BME280;66124;51.146;17.072;2023-04-07T06:22:39;100291.97;;;3.43;75.33
77153;BME280;66124;51.146;17.072;2023-04-07T06:25:10;100287.45;;;3.45;75.16
77153;BME280;66124;51.146;17.072;2023-04-07T06:33:49;100289.94;;;3.42;75.75
77153;BME280;66124;51.146;17.072;2023-04-07T06:36:19;100284.89;;;3.39;75.54
77153;BME280;66124;51.146;17.072;2023-04-07T06:38:48;100292.56;;;3.40;75.69
77153;BME280;66124;51.146;17.072;2023-04-07T06:41:18;100286.34;;;3.38;75.82
77153;BME280;66124;51.146;17.072;2023-04-07T06:43:49;100288.11;;;3.38;75.81
77153;BME280;66124;51.146;17.072;2023-04-07T06:46:18;100285.29;;;3.38;75.87
77153;BME280;66124;51.146;17.072;2023-04-07T06:48:48;100281.27;;;3.37;76.03
77153;BME280;66124;51.146;17.072;2023-04-07T06:51:17;100280.56;;;3.36;76.06
77153;BME280;66124;51.146;17.072;2023-04-07T06:53:47;100279.67;;;3.39;76.10
77153;BME280;66124;51.146;17.072;2023-04-07T06:56:16;100277.58;;;3.43;76.18
77153;BME280;66124;51.146;17.072;2023-04-07T06:58:45;100282.27;;;3.47;76.08
77153;BME280;66124;51.146;17.072;2023-04-07T07:01:15;100280.80;;;3.49;76.06
77153;BME280;66124;51.146;17.072;2023-04-07T07:03:44;100282.48;;;3.54;76.12
77153;BME280;66124;51.146;17.072;2023-04-07T07:06:13;100276.40;;;3.57;75.81
77153;BME280;66124;51.146;17.072;2023-04-07T07:08:43;100272.13;;;3.56;76.02
77153;BME280;66124;51.146;17.072;2023-04-07T07:11:12;100274.04;;;3.56;76.06
77153;BME280;66124;51.146;17.072;2023-04-07T07:13:41;100272.91;;;3.57;76.06
77153;BME280;66124;51.146;17.072;2023-04-07T07:16:11;100272.98;;;3.56;76.10
77153;BME280;66124;51.146;17.072;2023-04-07T07:18:40;100275.92;;;3.54;76.01
77153;BME280;66124;51.146;17.072;2023-04-07T07:21:09;100277.55;;;3.53;76.26
77153;BME280;66124;51.146;17.072;2023-04-07T07:23:39;100281.36;;;3.53;76.29
77153;BME280;66124;51.146;17.072;2023-04-07T07:26:08;100280.94;;;3.52;76.21
77153;BME280;66124;51.146;17.072;2023-04-07T07:28:37;100280.91;;;3.50;76.33
77153;BME280;66124;51.146;17.072;2023-04-07T07:31:10;100276.14;;;3.51;76.39
77153;BME280;66124;51.146;17.072;2023-04-07T07:33:40;100277.91;;;3.55;76.22
77153;BME280;66124;51.146;17.072;2023-04-07T07:36:10;100280.71;;;3.59;76.26
77153;BME280;66124;51.146;17.072;2023-04-07T07:38:40;100283.46;;;3.63;76.46
77153;BME280;66124;51.146;17.072;2023-04-07T07:41:09;100288.15;;;3.69;76.59
77153;BME280;66124;51.146;17.072;2023-04-07T07:43:37;100290.20;;;3.75;76.30
77153;BME280;66124;51.146;17.072;2023-04-07T07:46:05;100295.02;;;3.80;76.22
77153;BME280;66124;51.146;17.072;2023-04-07T07:56:07;100308.50;;;3.90;75.88
77153;BME280;66124;51.146;17.072;2023-04-07T07:58:36;100312.39;;;3.88;75.81
77153;BME280;66124;51.146;17.072;2023-04-07T08:01:06;100310.11;;;3.84;75.62
77153;BME280;66124;51.146;17.072;2023-04-07T08:03:35;100312.95;;;3.85;75.62
77153;BME280;66124;51.146;17.072;2023-04-07T08:06:05;100309.63;;;3.86;76.01
77153;BME280;66124;51.146;17.072;2023-04-07T08:08:35;100308.33;;;3.86;75.63
77153;BME280;66124;51.146;17.072;2023-04-07T08:11:04;100305.02;;;3.89;75.68
77153;BME280;66124;51.146;17.072;2023-04-07T08:13:34;100308.54;;;3.90;76.00
77153;BME280;66124;51.146;17.072;2023-04-07T08:16:04;100306.72;;;3.89;76.09
77153;BME280;66124;51.146;17.072;2023-04-07T08:18:34;100304.44;;;3.89;75.96
77153;BME280;66124;51.146;17.072;2023-04-07T08:21:04;100302.41;;;3.88;76.06
77153;BME280;66124;51.146;17.072;2023-04-07T08:23:34;100305.05;;;3.86;75.78
77153;BME280;66124;51.146;17.072;2023-04-07T08:26:03;100298.78;;;3.83;75.96
77153;BME280;66124;51.146;17.072;2023-04-07T08:28:32;100302.55;;;3.79;76.02
77153;BME280;66124;51.146;17.072;2023-04-07T08:31:02;100299.17;;;3.76;76.29
77153;BME280;66124;51.146;17.072;2023-04-07T08:33:31;100304.23;;;3.76;76.48
77153;BME280;66124;51.146;17.072;2023-04-07T08:36:01;100297.17;;;3.77;76.27
77153;BME280;66124;51.146;17.072;2023-04-07T08:38:30;100299.17;;;3.76;76.17
77153;BME280;66124;51.146;17.072;2023-04-07T08:41:03;100292.36;;;3.75;76.13
77153;BME280;66124;51.146;17.072;2023-04-07T08:43:36;100291.30;;;3.77;76.44
77153;BME280;66124;51.146;17.072;2023-04-07T08:46:09;100289.98;;;3.82;76.51
77153;BME280;66124;51.146;17.072;2023-04-07T08:48:37;100290.19;;;3.85;76.70
77153;BME280;66124;51.146;17.072;2023-04-07T08:51:07;100300.63;;;3.87;76.43
77153;BME280;66124;51.146;17.072;2023-04-07T08:53:42;100293.96;;;3.93;76.33
77153;BME280;66124;51.146;17.072;2023-04-07T08:56:13;100294.39;;;4.04;76.36
77153;BME280;66124;51.146;17.072;2023-04-07T08:58:43;100293.37;;;4.13;75.96
77153;BME280;66124;51.146;17.072;2023-04-07T09:01:13;100295.42;;;4.20;75.81
77153;BME280;66124;51.146;17.072;2023-04-07T09:03:42;100296.48;;;4.25;75.67
77153;BME280;66124;51.146;17.072;2023-04-07T09:06:11;100290.09;;;4.31;75.59
77153;BME280;66124;51.146;17.072;2023-04-07T09:08:38;100290.98;;;4.36;75.70
77153;BME280;66124;51.146;17.072;2023-04-07T09:19:49;100293.36;;;4.35;75.63
77153;BME280;66124;51.146;17.072;2023-04-07T09:22:34;100290.66;;;4.38;75.15
77153;BME280;66124;51.146;17.072;2023-04-07T09:25:15;100292.31;;;4.44;75.70
77153;BME280;66124;51.146;17.072;2023-04-07T09:27:59;100289.93;;;4.53;75.29
77153;BME280;66124;51.146;17.072;2023-04-07T09:30:29;100292.89;;;4.57;75.37
77153;BME280;66124;51.146;17.072;2023-04-07T09:33:00;100294.98;;;4.61;75.47
77153;BME280;66124;51.146;17.072;2023-04-07T09:35:30;100277.92;;;4.53;75.19
77153;BME280;66124;51.146;17.072;2023-04-07T09:38:07;100295.80;;;4.63;75.16
77153;BME280;66124;51.146;17.072;2023-04-07T09:40:39;100293.52;;;4.65;75.23
77153;BME280;66124;51.146;17.072;2023-04-07T09:43:15;100290.23;;;4.65;75.03
77153;BME280;66124;51.146;17.072;2023-04-07T09:45:45;100278.91;;;4.58;75.13
77153;BME280;66124;51.146;17.072;2023-04-07T09:48:21;100292.27;;;4.65;75.10
77153;BME280;66124;51.146;17.072;2023-04-07T09:50:51;100290.85;;;4.64;75.06
77153;BME280;66124;51.146;17.072;2023-04-07T09:53:42;100292.45;;;4.62;75.13
77153;BME280;66124;51.146;17.072;2023-04-07T09:56:12;100295.52;;;4.58;75.00
77153;BME280;66124;51.146;17.072;2023-04-07T09:58:44;100294.96;;;4.57;75.22
77153;BME280;66124;51.146;17.072;2023-04-07T10:01:14;100295.41;;;4.58;74.93
77153;BME280;66124;51.146;17.072;2023-04-07T10:03:45;100295.75;;;4.60;75.26
77153;BME280;66124;51.146;17.072;2023-04-07T10:06:14;100296.83;;;4.62;75.13
77153;BME280;66124;51.146;17.072;2023-04-07T10:08:44;100293.35;;;4.63;75.22
77153;BME280;66124;51.146;17.072;2023-04-07T10:11:13;100288.15;;;4.61;75.49
77153;BME280;66124;51.146;17.072;2023-04-07T10:13:43;100284.39;;;4.62;75.05
77153;BME280;66124;51.146;17.072;2023-04-07T10:16:13;100286.05;;;4.61;75.46
77153;BME280;66124;51.146;17.072;2023-04-07T10:18:43;100283.60;;;4.59;75.38
77153;BME280;66124;51.146;17.072;2023-04-07T10:21:15;100288.61;;;4.62;75.33
77153;BME280;66124;51.146;17.072;2023-04-07T10:23:57;100282.65;;;4.59;75.32
77153;BME280;66124;51.146;17.072;2023-04-07T10:26:30;100283.58;;;4.58;75.51
77153;BME280;66124;51.146;17.072;2023-04-07T10:29:05;100280.88;;;4.61;75.66
77153;BME280;66124;51.146;17.072;2023-04-07T10:31:33;100284.45;;;4.65;76.19
77153;BME280;66124;51.146;17.072;2023-04-07T10:39:23;100275.57;;;4.90;75.88
77153;BME280;66124;51.146;17.072;2023-04-07T10:41:52;100275.84;;;4.90;75.83
77153;BME280;66124;51.146;17.072;2023-04-07T10:47:23;100277.23;;;4.87;75.67
77153;BME280;66124;51.146;17.072;2023-04-07T10:50:16;100279.35;;;4.83;75.44
77153;BME280;66124;51.146;17.072;2023-04-07T10:52:47;100279.85;;;4.77;75.82
77153;BME280;66124;51.146;17.072;2023-04-07T10:55:33;100281.66;;;4.73;76.01
77153;BME280;66124;51.146;17.072;2023-04-07T10:58:23;100282.80;;;4.66;76.21
77153;BME280;66124;51.146;17.072;2023-04-07T11:01:22;100283.77;;;4.62;76.31
77153;BME280;66124;51.146;17.072;2023-04-07T11:03:56;100284.62;;;4.62;76.21
77153;BME280;66124;51.146;17.072;2023-04-07T11:06:26;100283.21;;;4.64;76.49
77153;BME280;66124;51.146;17.072;2023-04-07T11:08:55;100285.57;;;4.65;76.36
77153;BME280;66124;51.146;17.072;2023-04-07T11:11:39;100290.85;;;4.64;76.73
77153;BME280;66124;51.146;17.072;2023-04-07T11:14:08;100287.39;;;4.62;76.50
77153;BME280;66124;51.146;17.072;2023-04-07T11:16:40;100290.14;;;4.57;76.63
77153;BME280;66124;51.146;17.072;2023-04-07T11:19:08;100289.96;;;4.53;76.72
77153;BME280;66124;51.146;17.072;2023-04-07T11:21:38;100294.13;;;4.51;76.80
77153;BME280;66124;51.146;17.072;2023-04-07T11:24:07;100293.64;;;4.53;76.87
77153;BME280;66124;51.146;17.072;2023-04-07T11:26:41;100291.01;;;4.53;77.11
77153;BME280;66124;51.146;17.072;2023-04-07T11:29:10;100288.61;;;4.51;77.02
77153;BME280;66124;51.146;17.072;2023-04-07T11:31:40;100284.11;;;4.48;77.29
77153;BME280;66124;51.146;17.072;2023-04-07T11:34:15;100287.00;;;4.45;77.48
77153;BME280;66124;51.146;17.072;2023-04-07T11:36:44;100285.73;;;4.42;77.43
77153;BME280;66124;51.146;17.072;2023-04-07T11:39:20;100282.02;;;4.39;77.46
77153;BME280;66124;51.146;17.072;2023-04-07T11:41:50;100283.84;;;4.42;77.58
77153;BME280;66124;51.146;17.072;2023-04-07T11:44:20;100283.98;;;4.42;77.68
77153;BME280;66124;51.146;17.072;2023-04-07T11:46:56;100282.14;;;4.45;77.68
77153;BME280;66124;51.146;17.072;2023-04-07T11:49:25;100281.39;;;4.51;77.84
77153;BME280;66124;51.146;17.072;2023-04-07T11:51:57;100278.12;;;4.55;77.90
77153;BME280;66124;51.146;17.072;2023-04-07T11:59:34;100280.61;;;4.62;77.70
77153;BME280;66124;51.146;17.072;2023-04-07T12:02:04;100281.07;;;4.59;77.56
77153;BME280;66124;51.146;17.072;2023-04-07T12:04:33;100274.92;;;4.59;77.70
77153;BME280;66124;51.146;17.072;2023-04-07T12:07:09;100273.48;;;4.63;77.70
77153;BME280;66124;51.146;17.072;2023-04-07T12:09:39;100271.09;;;4.63;77.56
77153;BME280;66124;51.146;17.072;2023-04-07T12:12:09;100269.23;;;4.61;77.84
77153;BME280;66124;51.146;17.072;2023-04-07T12:14:38;100267.48;;;4.59;77.56
77153;BME280;66124;51.146;17.072;2023-04-07T12:17:13;100268.25;;;4.58;77.72
77153;BME280;66124;51.146;17.072;2023-04-07T12:19:48;100267.94;;;4.60;77.81
77153;BME280;66124;51.146;17.072;2023-04-07T12:22:17;100266.95;;;4.59;77.71
77153;BME280;66124;51.146;17.072;2023-04-07T12:24:47;100265.72;;;4.57;77.75
77153;BME280;66124;51.146;17.072;2023-04-07T12:27:16;100264.66;;;4.57;77.92
77153;BME280;66124;51.146;17.072;2023-04-07T12:29:46;100265.88;;;4.59;77.87
77153;BME280;66124;51.146;17.072;2023-04-07T12:32:15;100264.68;;;4.62;78.05
77153;BME280;66124;51.146;17.072;2023-04-07T12:34:45;100262.84;;;4.64;77.65
77153;BME280;66124;51.146;17.072;2023-04-07T12:37:14;100269.07;;;4.70;77.88
77153;BME280;66124;51.146;17.072;2023-04-07T12:39:43;100263.34;;;4.71;77.85
77153;BME280;66124;51.146;17.072;2023-04-07T12:42:13;100259.77;;;4.70;78.01
77153;BME280;66124;51.146;17.072;2023-04-07T12:44:42;100259.05;;;4.72;77.84
77153;BME280;66124;51.146;17.072;2023-04-07T12:47:11;100259.98;;;4.76;78.02
77153;BME280;66124;51.146;17.072;2023-04-07T12:49:41;100255.96;;;4.80;78.13
77153;BME280;66124;51.146;17.072;2023-04-07T12:52:10;100254.73;;;4.83;77.94
77153;BME280;66124;51.146;17.072;2023-04-07T12:54:40;100255.85;;;4.88;77.96
77153;BME280;66124;51.146;17.072;2023-04-07T12:57:09;100254.75;;;4.91;77.96
77153;BME280;66124;51.146;17.072;2023-04-07T12:59:38;100251.11;;;4.90;78.14
77153;BME280;66124;51.146;17.072;2023-04-07T13:02:08;100251.05;;;4.89;77.96
77153;BME280;66124;51.146;17.072;2023-04-07T13:04:38;100246.64;;;4.88;77.70
77153;BME280;66124;51.146;17.072;2023-04-07T13:07:07;100248.86;;;4.88;77.91
77153;BME280;66124;51.146;17.072;2023-04-07T13:09:35;100249.50;;;4.87;78.07
77153;BME280;66124;51.146;17.072;2023-04-07T13:12:04;100249.59;;;4.82;78.16
77153;BME280;66124;51.146;17.072;2023-04-07T13:19:41;100249.21;;;4.72;78.45
77153;BME280;66124;51.146;17.072;2023-04-07T13:22:10;100248.42;;;4.67;78.48
77153;BME280;66124;51.146;17.072;2023-04-07T13:24:40;100248.70;;;4.66;78.45
77153;BME280;66124;51.146;17.072;2023-04-07T13:27:09;100246.37;;;4.67;78.51
77153;BME280;66124;51.146;17.072;2023-04-07T13:29:39;100248.16;;;4.70;78.49
77153;BME280;66124;51.146;17.072;2023-04-07T13:32:10;100248.86;;;4.72;78.53
77153;BME280;66124;51.146;17.072;2023-04-07T13:34:40;100247.34;;;4.73;78.67
77153;BME280;66124;51.146;17.072;2023-04-07T13:37:09;100247.11;;;4.75;78.68
77153;BME280;66124;51.146;17.072;2023-04-07T13:39:38;100247.39;;;4.76;78.43
77153;BME280;66124;51.146;17.072;2023-04-07T13:42:09;100243.86;;;4.75;78.48
77153;BME280;66124;51.146;17.072;2023-04-07T13:44:38;100247.38;;;4.73;78.73
77153;BME280;66124;51.146;17.072;2023-04-07T13:47:07;100247.65;;;4.72;78.67
77153;BME280;66124;51.146;17.072;2023-04-07T13:49:37;100247.39;;;4.71;78.86
77153;BME280;66124;51.146;17.072;2023-04-07T13:52:06;100246.30;;;4.71;78.82
77153;BME280;66124;51.146;17.072;2023-04-07T13:54:36;100246.38;;;4.72;78.65
77153;BME280;66124;51.146;17.072;2023-04-07T13:57:05;100251.91;;;4.73;79.12
77153;BME280;66124;51.146;17.072;2023-04-07T13:59:35;100250.98;;;4.75;78.63
77153;BME280;66124;51.146;17.072;2023-04-07T14:02:04;100247.81;;;4.77;78.90
77153;BME280;66124;51.146;17.072;2023-04-07T14:04:34;100243.70;;;4.78;78.96
77153;BME280;66124;51.146;17.072;2023-04-07T14:07:03;100250.98;;;4.79;78.79
77153;BME280;66124;51.146;17.072;2023-04-07T14:09:33;100248.48;;;4.78;78.86
77153;BME280;66124;51.146;17.072;2023-04-07T14:12:02;100245.60;;;4.77;78.86
77153;BME280;66124;51.146;17.072;2023-04-07T14:14:32;100245.73;;;4.77;78.93